Time;durP1;ratioP1;P1;durP2;ratioP2;P2;SDS_P1;SDS_P2;PMS_P1;PMS_P2;Temp;Humidity;BMP_temperature;BMP_pressure;BME280_temperature;BME280_humidity;BME280_pressure;Samples;Min_cycle;Max_cycle;Signal;HPM_P1;HPM_P2
2021/12/01 00:00:19;;;;;;;54.15;33.83;;;9.50;99.90;;;;;;5049645;28;20092;-71
2021/12/01 00:02:46;;;;;;;59.22;33.38;;;9.50;99.90;;;;;;5067240;28;20045;-71
2021/12/01 00:05:12;;;;;;;54.72;34.08;;;9.60;99.90;;;;;;5054115;28;20041;-71
2021/12/01 00:07:38;;;;;;;59.03;37.08;;;9.60;99.90;;;;;;5069851;28;20041;-71
2021/12/01 00:10:08;;;;;;;58.80;35.20;;;9.60;99.90;;;;;;5053384;28;20063;-71
2021/12/01 00:12:34;;;;;;;55.63;33.90;;;9.70;99.90;;;;;;5053378;28;20094;-71
2021/12/01 00:15:01;;;;;;;51.53;32.97;;;9.70;99.90;;;;;;5053638;28;20131;-71
2021/12/01 00:17:27;;;;;;;50.58;34.80;;;9.70;99.90;;;;;;5039219;28;20040;-71
2021/12/01 00:19:53;;;;;;;50.05;34.33;;;9.70;99.90;;;;;;5036396;28;20063;-70
2021/12/01 00:22:19;;;;;;;47.80;33.92;;;9.70;99.90;;;;;;5053609;28;20127;-71
2021/12/01 00:24:45;;;;;;;52.45;35.15;;;9.70;99.90;;;;;;5052517;28;20095;-71
2021/12/01 00:27:11;;;;;;;45.40;33.03;;;9.70;99.90;;;;;;5052857;28;20503;-70
2021/12/01 00:29:41;;;;;;;42.42;32.58;;;9.70;99.90;;;;;;5069153;28;20400;-71
2021/12/01 00:32:08;;;;;;;44.70;33.47;;;9.70;99.90;;;;;;5052089;28;20105;-71
2021/12/01 00:34:35;;;;;;;41.95;30.65;;;9.80;99.90;;;;;;5069492;28;20045;-71
2021/12/01 00:37:01;;;;;;;42.88;32.63;;;9.70;99.90;;;;;;5052227;28;20356;-71
2021/12/01 00:39:26;;;;;;;38.85;31.63;;;9.80;99.90;;;;;;5069779;28;20055;-71
2021/12/01 00:41:52;;;;;;;45.22;32.10;;;9.80;99.90;;;;;;5067695;28;20056;-71
2021/12/01 00:44:19;;;;;;;43.17;31.52;;;9.80;99.90;;;;;;5052230;28;20163;-71
2021/12/01 00:46:56;;;;;;;40.95;31.23;;;9.80;99.90;;;;;;5068676;28;20148;-71
2021/12/01 00:49:22;;;;;;;38.25;30.58;;;9.80;99.90;;;;;;5054169;28;20056;-71
2021/12/01 00:51:48;;;;;;;39.50;30.63;;;9.70;99.90;;;;;;5067612;28;20044;-71
2021/12/01 00:54:14;;;;;;;40.65;30.42;;;9.70;99.90;;;;;;5056918;28;20048;-71
2021/12/01 00:56:40;;;;;;;39.75;28.90;;;9.70;99.90;;;;;;5068758;28;20562;-72
2021/12/01 00:59:06;;;;;;;40.60;28.98;;;9.80;99.90;;;;;;5069083;28;20044;-71
2021/12/01 01:01:32;;;;;;;37.97;28.30;;;9.80;99.90;;;;;;5068654;28;20079;-72
2021/12/01 01:03:57;;;;;;;38.83;28.23;;;9.80;99.90;;;;;;5051559;28;20044;-71
2021/12/01 01:06:23;;;;;;;34.25;25.38;;;9.80;99.90;;;;;;5069201;28;20048;-71
2021/12/01 01:08:49;;;;;;;40.28;28.15;;;9.80;99.90;;;;;;5051617;28;20040;-71
2021/12/01 01:16:46;;;;;;;32.28;24.27;;;9.80;99.90;;;;;;5064244;28;20044;-71
2021/12/01 01:19:14;;;;;;;35.90;24.00;;;9.80;99.90;;;;;;5068410;28;20044;-71
2021/12/01 01:21:44;;;;;;;31.35;23.65;;;9.90;99.90;;;;;;5068008;28;20093;-72
2021/12/01 01:24:10;;;;;;;31.75;24.40;;;9.90;99.90;;;;;;5051549;28;20052;-71
2021/12/01 01:26:36;;;;;;;29.98;23.85;;;9.90;99.90;;;;;;5051579;28;20053;-71
2021/12/01 01:29:03;;;;;;;35.03;26.17;;;9.90;99.90;;;;;;5068120;28;20060;-71
2021/12/01 01:31:30;;;;;;;37.72;25.70;;;9.90;99.90;;;;;;5051419;28;20124;-71
2021/12/01 01:33:57;;;;;;;31.05;22.00;;;9.90;99.90;;;;;;5051012;28;20057;-70
2021/12/01 01:36:24;;;;;;;32.67;22.88;;;9.80;99.90;;;;;;5035385;28;20380;-71
2021/12/01 01:38:51;;;;;;;23.48;19.02;;;9.80;99.90;;;;;;5067920;28;20040;-71
2021/12/01 01:41:17;;;;;;;27.85;17.85;;;9.80;99.90;;;;;;5034459;28;20041;-71
2021/12/01 01:43:45;;;;;;;26.17;17.35;;;9.90;99.90;;;;;;5067401;28;20052;-71
2021/12/01 01:46:12;;;;;;;25.90;18.45;;;9.80;99.90;;;;;;5068436;28;20135;-73
2021/12/01 01:48:53;;;;;;;27.80;19.50;;;9.80;99.90;;;;;;5041382;28;20053;-70
2021/12/01 01:51:22;;;;;;;25.75;18.92;;;9.80;99.90;;;;;;5075449;28;20053;-71
2021/12/01 01:53:50;;;;;;;24.73;18.30;;;9.80;99.90;;;;;;5068228;28;20410;-71
2021/12/01 01:56:16;;;;;;;24.83;17.23;;;9.80;99.90;;;;;;5051444;28;20106;-70
2021/12/01 01:58:42;;;;;;;22.85;16.33;;;9.80;99.90;;;;;;5068516;28;20117;-71
2021/12/01 02:01:26;;;;;;;25.15;16.40;;;9.80;99.90;;;;;;5034826;28;20461;-71
2021/12/01 02:03:51;;;;;;;27.92;16.05;;;9.90;99.90;;;;;;5036411;28;20426;-71
2021/12/01 02:06:22;;;;;;;17.02;12.95;;;9.80;99.90;;;;;;5067858;28;20056;-71
2021/12/01 02:08:54;;;;;;;20.40;12.32;;;9.80;99.90;;;;;;5049154;28;20052;-71
2021/12/01 02:11:22;;;;;;;18.55;12.15;;;9.80;99.90;;;;;;5087099;28;20552;-71
2021/12/01 02:13:48;;;;;;;18.30;11.77;;;9.80;99.90;;;;;;5062508;28;20072;-71
2021/12/01 02:16:16;;;;;;;16.40;10.82;;;9.80;99.90;;;;;;5066240;28;20052;-71
2021/12/01 02:18:42;;;;;;;17.35;11.43;;;9.80;99.90;;;;;;5052760;28;20054;-71
2021/12/01 02:21:28;;;;;;;15.60;10.60;;;9.80;99.90;;;;;;5065561;28;20135;-71
2021/12/01 02:24:00;;;;;;;18.70;11.20;;;9.90;99.90;;;;;;5048658;28;20092;-71
2021/12/01 02:26:28;;;;;;;12.68;9.35;;;9.90;99.90;;;;;;5063597;28;20055;-71
2021/12/01 02:28:57;;;;;;;15.07;10.50;;;9.90;99.90;;;;;;5065333;28;20059;-71
2021/12/01 02:31:30;;;;;;;14.02;9.50;;;9.90;99.90;;;;;;5068924;28;20048;-74
2021/12/01 02:33:57;;;;;;;13.32;8.95;;;10.00;99.90;;;;;;5047014;28;20426;-74
2021/12/01 02:36:23;;;;;;;14.57;10.40;;;10.10;99.90;;;;;;5048450;28;20703;-75
2021/12/01 02:38:50;;;;;;;13.35;9.82;;;10.00;99.90;;;;;;5064695;28;20527;-74
2021/12/01 02:41:17;;;;;;;13.23;9.15;;;10.00;99.90;;;;;;5065571;28;20107;-74
2021/12/01 02:43:45;;;;;;;10.70;7.53;;;10.00;99.90;;;;;;5064447;28;20446;-74
2021/12/01 02:46:11;;;;;;;10.82;6.68;;;10.10;99.90;;;;;;5048382;28;20052;-74
2021/12/01 02:48:42;;;;;;;12.63;6.32;;;10.10;99.90;;;;;;5059608;28;20048;-74
2021/12/01 02:51:10;;;;;;;11.65;6.50;;;10.20;99.90;;;;;;5058761;28;20058;-74
2021/12/01 02:53:36;;;;;;;12.00;7.45;;;10.20;99.90;;;;;;5068451;28;20054;-73
2021/12/01 02:56:04;;;;;;;13.63;8.60;;;10.20;99.90;;;;;;5068835;28;20120;-74
2021/12/01 02:58:32;;;;;;;14.13;9.98;;;10.20;99.90;;;;;;5077515;28;20075;-75
2021/12/01 03:01:01;;;;;;;12.25;9.13;;;10.10;99.90;;;;;;5062278;28;20048;-74
2021/12/01 03:03:27;;;;;;;10.63;7.65;;;10.20;99.90;;;;;;5072551;28;20690;-74
2021/12/01 03:05:56;;;;;;;10.77;8.40;;;10.10;99.90;;;;;;5079354;28;20083;-71
2021/12/01 03:08:22;;;;;;;10.05;8.02;;;10.10;99.90;;;;;;5053874;28;20109;-72
2021/12/01 03:10:50;;;;;;;11.77;7.55;;;10.10;99.90;;;;;;5067876;28;20440;-71
2021/12/01 03:13:16;;;;;;;11.27;8.00;;;10.10;99.90;;;;;;5083266;28;20048;-71
2021/12/01 03:15:42;;;;;;;10.82;7.40;;;10.10;99.90;;;;;;5064502;28;20580;-71
2021/12/01 03:18:12;;;;;;;10.27;7.45;;;10.10;99.90;;;;;;5054167;28;20711;-70
2021/12/01 03:20:39;;;;;;;9.73;6.32;;;10.10;99.90;;;;;;5047453;28;20044;-71
2021/12/01 03:23:05;;;;;;;9.35;5.20;;;10.10;99.90;;;;;;5065541;28;20044;-71
2021/12/01 03:25:32;;;;;;;9.88;4.20;;;10.20;99.90;;;;;;5064923;28;20573;-72
2021/12/01 03:28:03;;;;;;;9.63;5.05;;;10.20;99.90;;;;;;5064892;28;20048;-72
2021/12/01 03:30:33;;;;;;;;;;;10.20;99.90;;;;;;5065794;28;20056;-71
2021/12/01 03:33:02;;;;;;;;;;;10.20;99.90;;;;;;5065377;28;19920;-71
2021/12/01 03:35:29;;;;;;;8.80;3.72;;;10.10;99.90;;;;;;5067008;28;19927;-71
2021/12/01 03:37:55;;;;;;;10.82;4.05;;;10.10;99.90;;;;;;5051716;28;20044;-70
2021/12/01 03:40:21;;;;;;;10.77;3.97;;;10.00;99.90;;;;;;5052653;28;20048;-71
2021/12/01 03:42:47;;;;;;;8.73;3.17;;;10.00;99.90;;;;;;5068941;28;20036;-71
2021/12/01 03:45:14;;;;;;;10.02;3.05;;;10.00;99.90;;;;;;5052564;28;20044;-72
2021/12/01 03:47:39;;;;;;;13.85;4.05;;;10.00;99.90;;;;;;5069019;28;20491;-71
2021/12/01 03:50:06;;;;;;;12.07;4.30;;;10.00;99.90;;;;;;5049560;28;20335;-73
2021/12/01 03:52:32;;;;;;;12.88;3.80;;;10.00;99.90;;;;;;5052517;28;20048;-71
2021/12/01 03:55:01;;;;;;;11.77;4.50;;;10.00;99.90;;;;;;5049808;28;20048;-71
2021/12/01 03:57:27;;;;;;;8.10;4.13;;;10.00;99.90;;;;;;5082491;28;20043;-71
2021/12/01 03:59:53;;;;;;;10.23;4.13;;;10.00;99.90;;;;;;5082604;28;20387;-71
2021/12/01 04:02:19;;;;;;;11.90;4.65;;;10.00;99.90;;;;;;5050790;28;20090;-71
2021/12/01 04:04:45;;;;;;;14.00;5.47;;;10.00;99.90;;;;;;5063131;28;20047;-72
2021/12/01 04:07:11;;;;;;;11.15;5.43;;;10.00;99.90;;;;;;5065501;28;20052;-71
2021/12/01 04:09:42;;;;;;;12.85;6.03;;;10.00;99.90;;;;;;5086700;28;20089;-70
2021/12/01 04:12:08;;;;;;;11.23;6.28;;;10.00;99.90;;;;;;5071665;28;20072;-71
2021/12/01 04:14:35;;;;;;;8.82;5.47;;;9.90;99.90;;;;;;5059088;28;20435;-71
2021/12/01 04:17:00;;;;;;;9.40;5.55;;;9.90;99.90;;;;;;5071376;28;20105;-71
2021/12/01 04:19:27;;;;;;;8.55;4.90;;;9.90;99.90;;;;;;5054819;28;20510;-71
2021/12/01 04:21:53;;;;;;;9.27;5.65;;;9.90;99.90;;;;;;5066152;28;20052;-70
2021/12/01 04:24:19;;;;;;;8.90;5.10;;;9.90;99.90;;;;;;5073278;28;20056;-71
2021/12/01 04:26:45;;;;;;;8.13;5.40;;;10.00;99.90;;;;;;5049610;28;20049;-71
2021/12/01 04:29:11;;;;;;;8.73;5.15;;;9.90;99.90;;;;;;5075167;28;20070;-71
2021/12/01 04:31:40;;;;;;;9.38;5.15;;;9.90;99.90;;;;;;5053091;28;20039;-71
2021/12/01 04:34:06;;;;;;;7.43;5.00;;;9.90;99.90;;;;;;5067519;28;20047;-71
2021/12/01 04:36:35;;;;;;;7.28;4.82;;;9.90;99.90;;;;;;5057445;28;20040;-72
2021/12/01 04:39:03;;;;;;;8.68;4.70;;;10.00;99.90;;;;;;5061813;28;20052;-73
2021/12/01 04:41:37;;;;;;;7.78;5.35;;;10.00;99.90;;;;;;5063232;28;20425;-73
2021/12/01 04:44:08;;;;;;;7.32;4.78;;;10.00;99.90;;;;;;5048235;28;20384;-74
2021/12/01 04:46:40;;;;;;;6.78;4.57;;;10.00;99.90;;;;;;5072449;28;20072;-73
2021/12/01 04:49:07;;;;;;;6.65;4.20;;;9.90;99.90;;;;;;5055712;28;20066;-74
2021/12/01 04:51:34;;;;;;;6.15;4.13;;;9.90;99.90;;;;;;5050797;28;20074;-71
2021/12/01 04:53:59;;;;;;;6.85;3.67;;;9.90;99.90;;;;;;5077846;28;20250;-71
2021/12/01 04:56:25;;;;;;;7.85;4.30;;;9.90;99.90;;;;;;5078340;28;20047;-71
2021/12/01 04:58:51;;;;;;;5.18;3.35;;;9.90;99.90;;;;;;5075508;28;20114;-71
2021/12/01 05:01:17;;;;;;;5.60;3.17;;;9.80;99.90;;;;;;5074489;28;20052;-71
2021/12/01 05:03:43;;;;;;;6.10;3.55;;;9.90;99.90;;;;;;5050202;28;20052;-72
2021/12/01 05:06:12;;;;;;;5.55;3.60;;;9.80;99.90;;;;;;5067634;28;20044;-71
2021/12/01 05:08:39;;;;;;;7.63;3.78;;;9.80;99.90;;;;;;5071136;28;20055;-72
2021/12/01 05:11:04;;;;;;;5.03;3.50;;;9.70;99.90;;;;;;5054398;28;20398;-71
2021/12/01 05:13:30;;;;;;;5.20;3.30;;;9.80;99.90;;;;;;5071171;28;20047;-72
2021/12/01 05:15:56;;;;;;;4.55;3.30;;;9.80;99.90;;;;;;5086775;28;20490;-70
2021/12/01 05:18:25;;;;;;;4.43;3.28;;;9.80;99.90;;;;;;5073620;28;20843;-71
2021/12/01 05:20:51;;;;;;;5.35;3.85;;;9.80;99.90;;;;;;5067088;28;20055;-71
2021/12/01 05:23:17;;;;;;;6.30;4.05;;;9.70;99.90;;;;;;5059358;28;20612;-71
2021/12/01 05:25:43;;;;;;;4.80;3.58;;;9.70;99.90;;;;;;5053400;28;20625;-72
2021/12/01 05:28:09;;;;;;;5.68;4.30;;;9.70;99.90;;;;;;5087957;28;20123;-72
2021/12/01 05:30:35;;;;;;;6.15;4.63;;;9.70;99.90;;;;;;5070318;28;20131;-71
2021/12/01 05:33:07;;;;;;;5.18;3.80;;;9.70;99.90;;;;;;5054456;28;20173;-72
2021/12/01 05:35:34;;;;;;;6.45;5.15;;;9.70;99.90;;;;;;5055315;28;20051;-72
2021/12/01 05:38:00;;;;;;;7.25;5.18;;;9.60;99.90;;;;;;5070417;28;20398;-72
2021/12/01 05:40:26;;;;;;;6.82;4.97;;;9.70;99.90;;;;;;5037640;28;20055;-71
2021/12/01 05:42:52;;;;;;;6.28;5.00;;;9.60;99.90;;;;;;5036859;28;20043;-71
2021/12/01 05:45:18;;;;;;;6.25;5.50;;;9.60;99.90;;;;;;5053304;28;20047;-71
2021/12/01 05:47:44;;;;;;;7.90;5.40;;;9.60;99.90;;;;;;5065101;28;20107;-72
2021/12/01 05:50:11;;;;;;;6.70;4.93;;;9.60;99.90;;;;;;5049867;28;20056;-72
2021/12/01 05:52:37;;;;;;;6.63;5.70;;;9.60;99.90;;;;;;5049641;28;20591;-72
2021/12/01 05:55:05;;;;;;;6.75;5.80;;;9.50;99.90;;;;;;5049218;28;20089;-74
2021/12/01 05:57:30;;;;;;;5.90;5.30;;;9.50;99.90;;;;;;5049967;28;20495;-74
2021/12/01 05:59:56;;;;;;;6.63;5.95;;;9.60;99.90;;;;;;5064794;28;20048;-72
2021/12/01 06:02:22;;;;;;;5.50;4.60;;;9.50;99.90;;;;;;5075272;28;20431;-73
2021/12/01 06:04:48;;;;;;;5.65;5.07;;;9.50;99.90;;;;;;5048328;28;20047;-72
2021/12/01 06:07:14;;;;;;;5.88;4.95;;;9.50;99.90;;;;;;5053969;28;20552;-72
2021/12/01 06:09:41;;;;;;;6.97;5.55;;;9.40;99.90;;;;;;5061294;28;20433;-72
2021/12/01 06:12:07;;;;;;;6.80;5.35;;;9.40;99.90;;;;;;5065507;28;20048;-72
2021/12/01 06:14:34;;;;;;;6.90;5.00;;;9.40;99.90;;;;;;5054356;28;20047;-71
2021/12/01 06:17:01;;;;;;;5.80;4.35;;;9.40;99.90;;;;;;5070435;28;20070;-71
2021/12/01 06:19:27;;;;;;;5.38;4.00;;;9.30;99.90;;;;;;5071411;28;20066;-71
2021/12/01 06:21:52;;;;;;;4.85;3.70;;;9.30;99.90;;;;;;5030919;28;20040;-72
2021/12/01 06:24:18;;;;;;;4.22;3.35;;;9.30;99.90;;;;;;5034805;28;20083;-72
2021/12/01 06:26:44;;;;;;;4.35;2.85;;;9.30;99.90;;;;;;5052496;28;20044;-72
2021/12/01 06:29:10;;;;;;;4.57;3.20;;;9.30;99.90;;;;;;5045329;28;20056;-72
2021/12/01 06:31:36;;;;;;;5.15;3.15;;;9.30;99.90;;;;;;5065794;28;20414;-71
2021/12/01 06:34:02;;;;;;;3.40;2.50;;;9.30;99.90;;;;;;5051358;28;20055;-72
2021/12/01 06:36:31;;;;;;;4.15;2.70;;;9.30;99.90;;;;;;5052403;28;20442;-72
2021/12/01 06:38:57;;;;;;;3.38;2.22;;;9.20;99.90;;;;;;5066275;28;20827;-73
2021/12/01 06:41:23;;;;;;;3.35;2.40;;;9.20;99.90;;;;;;5057626;28;20040;-72
2021/12/01 06:43:49;;;;;;;3.38;2.33;;;9.20;99.90;;;;;;5065480;28;20268;-72
2021/12/01 06:46:14;;;;;;;5.20;2.33;;;9.20;99.90;;;;;;5030195;28;20159;-72
2021/12/01 06:48:40;;;;;;;3.33;2.50;;;9.20;99.90;;;;;;5033283;28;20047;-73
2021/12/01 06:51:06;;;;;;;4.45;2.58;;;9.30;99.90;;;;;;5042252;28;20491;-72
2021/12/01 06:53:32;;;;;;;3.30;2.38;;;9.20;99.90;;;;;;5052173;28;20036;-72
2021/12/01 06:55:57;;;;;;;4.28;2.70;;;9.20;99.90;;;;;;5043822;28;20407;-72
2021/12/01 06:58:23;;;;;;;3.20;2.55;;;9.10;99.90;;;;;;5044793;28;20056;-71
2021/12/01 07:00:49;;;;;;;4.93;2.85;;;9.10;99.90;;;;;;5051265;28;20048;-72
2021/12/01 07:03:15;;;;;;;3.53;2.67;;;9.10;99.90;;;;;;5058706;28;20133;-72
2021/12/01 07:05:41;;;;;;;3.75;2.70;;;9.10;99.90;;;;;;5037087;28;20036;-72
2021/12/01 07:08:06;;;;;;;4.18;2.75;;;9.10;99.90;;;;;;5079035;28;20227;-73
2021/12/01 07:10:32;;;;;;;4.80;2.88;;;9.10;99.90;;;;;;5072963;28;20506;-72
2021/12/01 07:13:01;;;;;;;3.67;2.72;;;9.00;99.90;;;;;;5069183;28;20121;-72
2021/12/01 07:15:27;;;;;;;3.70;2.78;;;9.00;99.90;;;;;;5071103;28;20110;-72
2021/12/01 07:17:52;;;;;;;4.00;2.75;;;9.00;99.90;;;;;;5072956;28;20137;-73
2021/12/01 07:20:18;;;;;;;4.28;2.78;;;9.00;99.90;;;;;;5058053;28;20041;-72
2021/12/01 07:22:44;;;;;;;3.45;2.60;;;9.10;99.90;;;;;;5029310;28;20047;-72
2021/12/01 07:25:12;;;;;;;4.20;3.10;;;9.00;99.90;;;;;;5078029;28;20483;-74
2021/12/01 07:27:41;;;;;;;4.72;3.63;;;9.00;99.90;;;;;;5049262;28;20040;-71
2021/12/01 07:30:07;;;;;;;5.60;4.05;;;9.10;99.90;;;;;;5048605;28;20052;-72
2021/12/01 07:32:33;;;;;;;4.95;3.90;;;9.10;99.90;;;;;;5058598;28;20064;-72
2021/12/01 07:35:03;;;;;;;4.93;3.65;;;9.10;99.90;;;;;;5073260;28;20137;-73
2021/12/01 07:37:29;;;;;;;6.93;4.97;;;9.10;99.90;;;;;;5050849;28;20075;-72
2021/12/01 07:39:55;;;;;;;7.30;4.50;;;9.00;99.90;;;;;;5072410;28;20520;-72
2021/12/01 07:42:21;;;;;;;7.25;5.30;;;9.10;99.90;;;;;;5044294;28;20143;-72
2021/12/01 07:44:47;;;;;;;6.53;5.18;;;9.10;99.90;;;;;;5047104;28;20127;-73
2021/12/01 07:47:13;;;;;;;6.70;4.97;;;9.10;99.90;;;;;;5071696;28;20036;-73
2021/12/01 07:49:40;;;;;;;6.22;5.13;;;9.10;99.90;;;;;;5050902;28;20055;-73
2021/12/01 07:52:07;;;;;;;6.93;5.70;;;9.10;99.90;;;;;;5065441;28;20095;-74
2021/12/01 07:54:33;;;;;;;7.72;6.32;;;9.10;99.90;;;;;;5063491;28;20045;-73
2021/12/01 07:57:02;;;;;;;8.50;6.70;;;9.10;99.90;;;;;;5046781;28;20044;-72
2021/12/01 07:59:29;;;;;;;11.13;7.80;;;9.10;99.90;;;;;;5064832;28;20059;-72
2021/12/01 08:01:55;;;;;;;7.00;5.88;;;9.20;99.90;;;;;;5064751;28;20046;-72
2021/12/01 08:04:21;;;;;;;9.20;6.43;;;9.10;99.90;;;;;;5080091;28;20048;-73
2021/12/01 08:06:47;;;;;;;9.68;7.50;;;9.20;99.90;;;;;;5031207;28;20044;-72
2021/12/01 08:09:13;;;;;;;8.80;6.40;;;9.20;99.90;;;;;;5077325;28;20048;-73
2021/12/01 08:11:39;;;;;;;8.68;7.18;;;9.20;99.90;;;;;;5060306;28;20040;-72
2021/12/01 08:14:06;;;;;;;7.45;6.47;;;9.20;99.90;;;;;;5062215;28;20494;-73
2021/12/01 08:16:33;;;;;;;9.45;6.57;;;9.20;99.90;;;;;;5056621;28;20079;-74
2021/12/01 08:18:59;;;;;;;8.45;6.47;;;9.30;99.90;;;;;;5054405;28;20053;-72
2021/12/01 08:21:26;;;;;;;8.15;7.05;;;9.30;99.90;;;;;;5067395;28;20410;-72
2021/12/01 08:23:53;;;;;;;8.93;6.55;;;9.30;99.90;;;;;;5062095;28;20054;-72
2021/12/01 08:26:20;;;;;;;7.00;6.30;;;9.30;99.90;;;;;;5054836;28;20055;-73
2021/12/01 08:28:47;;;;;;;7.35;6.53;;;9.30;99.90;;;;;;5065881;28;20052;-73
2021/12/01 08:31:17;;;;;;;8.23;5.95;;;9.40;99.90;;;;;;5069517;28;20590;-72
2021/12/01 08:33:45;;;;;;;7.53;6.10;;;9.40;99.90;;;;;;5052096;28;20052;-72
2021/12/01 08:36:11;;;;;;;8.35;5.05;;;9.40;99.90;;;;;;5060375;28;20039;-72
2021/12/01 08:38:38;;;;;;;9.18;5.80;;;9.40;99.90;;;;;;5075652;28;20043;-73
2021/12/01 08:41:06;;;;;;;8.43;6.03;;;9.40;99.90;;;;;;5070294;28;20498;-72
2021/12/01 08:43:32;;;;;;;9.48;5.88;;;9.40;99.90;;;;;;5049540;28;20498;-72
2021/12/01 08:45:58;;;;;;;5.47;3.15;;;9.40;99.90;;;;;;5068629;28;20137;-72
2021/12/01 08:48:24;;;;;;;5.35;2.17;;;9.30;99.90;;;;;;5070375;28;20443;-76
2021/12/01 08:50:50;;;;;;;9.85;3.00;;;9.40;99.90;;;;;;5056081;28;21793;-73
2021/12/01 08:53:16;;;;;;;4.88;2.25;;;9.40;99.90;;;;;;5054792;28;20050;-73
2021/12/01 08:55:42;;;;;;;7.90;2.95;;;9.30;99.90;;;;;;5036195;28;20036;-72
2021/12/01 08:58:09;;;;;;;8.80;2.80;;;9.30;99.90;;;;;;5054101;28;20080;-73
2021/12/01 09:00:37;;;;;;;6.78;2.20;;;9.30;99.90;;;;;;5069681;28;20032;-73
2021/12/01 09:03:04;;;;;;;7.20;2.33;;;9.20;99.90;;;;;;5055811;28;20501;-72
2021/12/01 09:05:31;;;;;;;9.60;2.03;;;9.20;99.90;;;;;;5046597;28;20143;-73
2021/12/01 09:07:57;;;;;;;11.38;2.25;;;9.20;99.90;;;;;;5054050;28;20052;-73
2021/12/01 09:10:22;;;;;;;9.15;2.42;;;9.30;99.90;;;;;;5067218;28;20483;-74
2021/12/01 09:12:48;;;;;;;11.30;2.53;;;9.30;99.90;;;;;;5053960;28;20043;-72
2021/12/01 09:15:14;;;;;;;10.20;2.22;;;9.30;99.90;;;;;;5066055;28;20083;-73
2021/12/01 09:17:40;;;;;;;13.18;2.38;;;9.40;99.90;;;;;;5051384;28;20094;-72
2021/12/01 09:20:07;;;;;;;10.07;2.03;;;9.40;99.90;;;;;;5053123;28;20123;-74
2021/12/01 09:22:33;;;;;;;8.93;1.65;;;9.40;99.90;;;;;;5072615;28;20051;-76
2021/12/01 09:24:59;;;;;;;9.95;1.70;;;9.30;99.90;;;;;;5049282;28;20044;-73
2021/12/01 09:27:24;;;;;;;9.95;2.05;;;9.30;99.90;;;;;;5067245;28;20080;-73
2021/12/01 09:29:53;;;;;;;8.60;2.35;;;9.40;99.90;;;;;;5050505;28;20483;-72
2021/12/01 09:32:19;;;;;;;8.80;1.50;;;9.30;99.90;;;;;;5059339;28;20083;-73
2021/12/01 09:34:46;;;;;;;9.25;1.45;;;9.30;99.90;;;;;;5076017;28;20075;-76
2021/12/01 09:37:12;;;;;;;10.55;1.52;;;9.30;99.90;;;;;;5051376;28;20045;-73
2021/12/01 09:39:38;;;;;;;8.07;1.35;;;9.30;99.90;;;;;;5077196;28;20074;-73
2021/12/01 09:42:04;;;;;;;10.15;1.75;;;9.20;99.90;;;;;;5083321;28;20044;-72
2021/12/01 09:44:30;;;;;;;10.32;1.73;;;9.20;99.90;;;;;;5068437;28;20048;-73
2021/12/01 09:46:58;;;;;;;11.18;2.03;;;9.10;99.90;;;;;;5037184;28;20155;-73
2021/12/01 09:49:24;;;;;;;8.15;1.08;;;9.00;99.90;;;;;;5037127;28;20663;-73
2021/12/01 09:51:53;;;;;;;10.20;1.73;;;9.00;99.90;;;;;;5062768;28;20062;-73
2021/12/01 09:54:19;;;;;;;7.18;0.90;;;9.00;99.90;;;;;;5069509;28;20258;-75
2021/12/01 09:56:45;;;;;;;8.60;1.33;;;9.00;99.90;;;;;;5078317;28;20048;-73
2021/12/01 09:59:11;;;;;;;7.32;0.95;;;8.90;99.90;;;;;;5051502;28;20102;-72
2021/12/01 10:01:37;;;;;;;7.85;1.15;;;8.90;99.90;;;;;;5066325;28;20044;-75
2021/12/01 10:04:03;;;;;;;5.28;1.10;;;8.90;99.90;;;;;;5032115;28;20135;-74
2021/12/01 10:06:29;;;;;;;10.52;1.73;;;8.90;99.90;;;;;;5082649;28;20055;-73
2021/12/01 10:09:00;;;;;;;10.10;1.50;;;8.90;99.90;;;;;;5082298;28;20612;-73
2021/12/01 10:11:27;;;;;;;14.02;2.17;;;8.90;99.90;;;;;;5073789;28;20047;-73
2021/12/01 10:14:01;;;;;;;7.22;1.20;;;8.90;99.90;;;;;;5072515;28;20190;-73
2021/12/01 10:16:30;;;;;;;8.15;1.50;;;9.00;99.90;;;;;;5065140;28;20056;-72
2021/12/01 10:18:58;;;;;;;10.50;1.45;;;9.00;99.90;;;;;;5068476;28;20110;-73
2021/12/01 10:21:35;;;;;;;16.00;3.17;;;9.00;99.90;;;;;;5049815;28;20734;-73
2021/12/01 10:24:09;;;;;;;8.88;1.55;;;9.00;99.90;;;;;;5056177;28;20047;-74
2021/12/01 10:26:41;;;;;;;10.45;1.65;;;9.00;99.90;;;;;;5076494;28;20061;-73
2021/12/01 10:29:22;;;;;;;10.57;1.50;;;9.10;99.90;;;;;;5051484;28;20063;-72
2021/12/01 10:32:09;;;;;;;9.30;1.25;;;9.00;99.90;;;;;;5068909;28;21162;-72
2021/12/01 10:34:46;;;;;;;11.60;2.28;;;9.00;99.90;;;;;;5054047;28;20045;-70
2021/12/01 10:37:15;;;;;;;13.35;1.90;;;9.00;99.90;;;;;;5065432;28;20099;-72
2021/12/01 10:39:44;;;;;;;8.43;1.50;;;8.90;99.90;;;;;;5060005;28;20053;-72
2021/12/01 10:42:14;;;;;;;10.82;1.38;;;8.90;99.90;;;;;;5047876;28;20040;-71
2021/12/01 10:44:59;;;;;;;7.88;1.30;;;8.90;99.90;;;;;;5075668;28;20047;-71
2021/12/01 10:47:26;;;;;;;9.20;1.85;;;9.00;99.90;;;;;;5075080;28;20099;-71
2021/12/01 10:49:57;;;;;;;10.38;1.75;;;9.00;99.90;;;;;;5062851;28;20123;-71
2021/12/01 10:52:52;;;;;;;13.93;1.98;;;9.00;99.90;;;;;;5052838;28;20056;-72
2021/12/01 10:55:26;;;;;;;8.20;1.50;;;9.00;99.90;;;;;;5066969;28;20064;-72
2021/12/01 10:57:57;;;;;;;8.73;1.42;;;9.00;99.90;;;;;;5036472;28;20662;-72
2021/12/01 11:00:28;;;;;;;7.28;1.25;;;9.10;99.90;;;;;;5052546;28;20060;-72
2021/12/01 11:03:06;;;;;;;8.98;1.27;;;9.10;99.90;;;;;;5072717;28;20075;-71
2021/12/01 11:05:37;;;;;;;7.50;1.33;;;9.10;99.90;;;;;;5076205;28;20101;-72
2021/12/01 11:08:27;;;;;;;7.78;1.25;;;9.10;99.90;;;;;;5047673;28;20047;-71
2021/12/01 11:10:55;;;;;;;9.20;1.55;;;9.00;99.90;;;;;;5075469;28;20068;-72
2021/12/01 11:13:23;;;;;;;10.85;2.60;;;8.90;99.90;;;;;;5051309;28;20612;-71
2021/12/01 11:16:00;;;;;;;10.88;1.70;;;9.00;99.90;;;;;;5065707;28;20048;-71
2021/12/01 11:18:30;;;;;;;10.23;1.50;;;8.90;99.90;;;;;;5056445;28;20048;-71
2021/12/01 11:20:58;;;;;;;14.70;2.15;;;9.00;99.90;;;;;;5066710;28;20466;-71
2021/12/01 11:23:30;;;;;;;16.33;2.03;;;9.00;99.90;;;;;;5071001;28;20070;-73
2021/12/01 11:25:58;;;;;;;14.30;2.75;;;9.10;99.90;;;;;;5046970;28;20043;-71
2021/12/01 11:28:27;;;;;;;13.00;2.22;;;9.00;99.90;;;;;;5051165;28;20194;-71
2021/12/01 11:30:57;;;;;;;11.77;1.70;;;9.00;99.90;;;;;;5072020;28;20507;-71
2021/12/01 11:33:25;;;;;;;11.73;2.40;;;9.00;99.90;;;;;;5066808;28;20134;-71
2021/12/01 11:35:58;;;;;;;16.73;2.80;;;9.00;99.90;;;;;;5067394;28;20048;-71
2021/12/01 11:38:25;;;;;;;12.85;1.95;;;9.00;99.90;;;;;;5051980;28;20115;-72
2021/12/01 11:40:56;;;;;;;15.18;2.45;;;9.00;99.90;;;;;;5050988;28;20159;-72
2021/12/01 11:43:24;;;;;;;15.98;3.40;;;9.00;99.90;;;;;;5069600;28;20068;-71
2021/12/01 11:45:51;;;;;;;17.50;2.53;;;9.00;99.90;;;;;;5055473;28;20052;-71
2021/12/01 11:48:26;;;;;;;14.38;2.55;;;9.00;99.90;;;;;;5043167;28;20119;-71
2021/12/01 11:51:28;;;;;;;13.70;3.53;;;8.90;99.90;;;;;;5067834;28;20040;-71
2021/12/01 11:54:06;;;;;;;12.13;2.72;;;8.90;99.90;;;;;;5071146;28;20121;-71
2021/12/01 11:56:37;;;;;;;15.23;2.45;;;8.90;99.90;;;;;;5066522;28;20047;-72
2021/12/01 11:59:06;;;;;;;14.68;2.75;;;8.80;99.90;;;;;;5067076;28;20049;-70
2021/12/01 12:01:37;;;;;;;12.05;2.60;;;8.80;99.90;;;;;;5066248;28;20114;-71
2021/12/01 12:04:06;;;;;;;14.98;2.60;;;8.70;99.90;;;;;;5068537;28;20044;-71
2021/12/01 12:06:35;;;;;;;11.82;2.60;;;8.60;99.90;;;;;;5056889;28;20046;-72
2021/12/01 12:09:05;;;;;;;13.50;2.28;;;8.60;99.90;;;;;;5081688;28;20039;-71
2021/12/01 12:11:50;;;;;;;15.35;2.75;;;8.70;99.90;;;;;;5079947;28;20080;-71
2021/12/01 12:14:26;;;;;;;18.70;3.50;;;8.50;99.90;;;;;;5068033;28;20760;-71
2021/12/01 12:17:13;;;;;;;21.65;2.50;;;8.40;99.90;;;;;;5083385;28;20044;-71
2021/12/01 12:19:54;;;;;;;21.52;3.38;;;8.40;99.90;;;;;;5085078;28;20080;-71
2021/12/01 12:22:36;;;;;;;19.80;3.42;;;8.40;99.90;;;;;;5071453;28;20109;-71
2021/12/01 12:25:11;;;;;;;14.73;2.55;;;8.40;99.90;;;;;;5077036;28;20569;-73
2021/12/01 12:27:47;;;;;;;18.55;2.65;;;8.40;99.90;;;;;;5068559;28;20059;-74
2021/12/01 12:30:34;;;;;;;23.65;3.22;;;8.50;99.90;;;;;;5068851;28;20363;-71
2021/12/01 12:33:18;;;;;;;20.02;4.57;;;8.50;99.90;;;;;;5056285;28;20646;-71
2021/12/01 12:35:46;;;;;;;24.23;3.08;;;8.50;99.90;;;;;;5054959;28;20045;-72
2021/12/01 12:38:12;;;;;;;16.48;3.25;;;8.40;99.90;;;;;;5082939;28;20629;-70
2021/12/01 12:40:38;;;;;;;18.25;3.60;;;8.30;99.90;;;;;;5072121;28;20048;-72
2021/12/01 12:43:24;;;;;;;18.23;2.83;;;8.30;99.90;;;;;;5072249;28;20546;-72
2021/12/01 12:46:01;;;;;;;18.65;3.53;;;8.20;99.90;;;;;;5054080;28;20044;-70
2021/12/01 12:48:34;;;;;;;19.08;3.60;;;8.20;99.90;;;;;;5069112;28;20055;-72
2021/12/01 12:51:13;;;;;;;17.08;2.55;;;8.20;99.90;;;;;;5071846;28;20529;-71
2021/12/01 12:54:08;;;;;;;12.80;2.67;;;8.20;99.90;;;;;;5078109;28;20044;-71
2021/12/01 12:56:37;;;;;;;16.17;2.17;;;8.20;99.90;;;;;;5070888;28;20114;-74
2021/12/01 12:59:19;;;;;;;14.85;2.38;;;8.20;99.90;;;;;;5070384;28;20050;-71